Time;durP1;ratioP1;P1;durP2;ratioP2;P2;SDS_P1;SDS_P2;PMS_P1;PMS_P2;Temp;Humidity;BMP_temperature;BMP_pressure;BME280_temperature;BME280_humidity;BME280_pressure;Samples;Min_cycle;Max_cycle;Signal;HPM_P1;HPM_P2
2021/10/27 06:00:11;;;;;;;60.92;7.63;;;14.10;99.90;;;;;;6109100;23;20029;31
2021/10/27 06:02:38;;;;;;;87.72;8.43;;;14.10;99.90;;;;;;6152283;23;20014;-77
2021/10/27 06:05:06;;;;;;;76.90;8.48;;;14.10;99.90;;;;;;6152383;23;20021;-76
2021/10/27 06:07:33;;;;;;;111.05;10.15;;;14.10;99.90;;;;;;6152373;23;20491;-77
2021/10/27 06:10:00;;;;;;;83.90;8.52;;;14.10;99.90;;;;;;6153071;23;20053;-77
2021/10/27 06:12:28;;;;;;;54.55;8.65;;;14.10;99.90;;;;;;6151974;23;20037;-76
2021/10/27 06:14:55;;;;;;;45.47;8.70;;;14.20;99.90;;;;;;6152477;23;20022;-77
2021/10/27 06:17:23;;;;;;;38.85;8.65;;;14.10;99.90;;;;;;6152080;23;20073;-76
2021/10/27 06:19:52;;;;;;;27.02;6.95;;;14.10;99.90;;;;;;6152469;23;20018;-77
2021/10/27 06:22:21;;;;;;;25.25;7.13;;;14.20;99.90;;;;;;6152017;23;20426;-77
2021/10/27 06:24:48;;;;;;;20.10;6.38;;;14.10;99.90;;;;;;6153150;23;20021;-76
2021/10/27 06:27:15;;;;;;;31.60;7.38;;;14.20;99.90;;;;;;6151726;23;20032;-77
2021/10/27 06:32:47;;;;;;;17.60;5.95;;;14.20;99.90;;;;;;6090965;23;20030;-77
2021/10/27 06:35:18;;;;;;;32.88;8.20;;;14.10;99.90;;;;;;6089948;23;20026;-77
2021/10/27 06:48:49;;;;;;;32.38;6.78;;;14.10;99.90;;;;;;6005075;23;20076;-76
2021/10/27 06:51:16;;;;;;;22.20;5.60;;;14.10;99.90;;;;;;6004627;23;20028;-77
2021/10/27 06:53:43;;;;;;;23.23;5.70;;;14.10;99.90;;;;;;6005413;23;20019;-77
2021/10/27 06:56:13;;;;;;;28.55;5.55;;;14.10;99.90;;;;;;6004782;23;20161;-76
2021/10/27 06:58:45;;;;;;;18.15;5.00;;;14.10;99.90;;;;;;6007735;23;20332;-77
2021/10/27 07:02:04;;;;;;;24.27;5.05;;;14.10;99.90;;;;;;6005994;23;20043;-77
2021/10/27 07:14:59;;;;;;;18.50;3.90;;;14.00;99.90;;;;;;6035554;23;20370;-76
2021/10/27 07:15:20;;;;;;;14.60;3.35;;;14.00;99.90;;;;;;6035274;23;20124;-76
2021/10/27 07:17:49;;;;;;;16.02;3.88;;;14.00;99.90;;;;;;6035023;23;20019;-77
2021/10/27 07:20:16;;;;;;;16.45;3.08;;;14.10;99.90;;;;;;6115115;23;20033;-77
2021/10/27 07:22:43;;;;;;;21.98;3.38;;;14.10;99.90;;;;;;6154747;23;20029;-77
2021/10/27 07:25:11;;;;;;;16.58;3.20;;;14.10;99.90;;;;;;6153082;23;20029;-77
2021/10/27 07:27:38;;;;;;;17.92;2.90;;;14.10;99.90;;;;;;6154809;23;20068;-77
2021/10/27 07:30:06;;;;;;;15.07;2.58;;;14.10;99.90;;;;;;6153973;23;20025;-77
2021/10/27 07:32:33;;;;;;;16.08;2.53;;;14.10;99.90;;;;;;6152132;23;20017;-77
2021/10/27 07:35:26;;;;;;;17.45;3.15;;;14.20;99.90;;;;;;6152776;23;20356;-77
2021/10/27 07:40:43;;;;;;;15.10;2.60;;;14.30;99.90;;;;;;6152107;23;20085;-78
2021/10/27 07:43:18;;;;;;;13.40;2.80;;;14.30;99.90;;;;;;6151910;23;20379;-77
2021/10/27 07:45:46;;;;;;;14.98;2.53;;;14.30;99.90;;;;;;6152872;23;20021;-77
2021/10/27 07:48:14;;;;;;;12.98;2.35;;;14.40;99.90;;;;;;6152049;23;20341;-77
2021/10/27 07:50:42;;;;;;;14.52;2.67;;;14.40;99.90;;;;;;6152390;23;20494;-77
2021/10/27 07:53:12;;;;;;;16.90;2.70;;;14.40;99.90;;;;;;6151957;23;20072;-78
2021/10/27 07:55:46;;;;;;;17.00;3.13;;;14.40;99.90;;;;;;6152856;23;20025;-77
2021/10/27 07:58:14;;;;;;;16.98;2.33;;;14.50;99.90;;;;;;6152170;23;20044;-77
2021/10/27 08:00:41;;;;;;;14.85;3.00;;;14.50;99.90;;;;;;6152051;23;20021;-77
2021/10/27 08:03:09;;;;;;;14.20;2.80;;;14.50;99.90;;;;;;6151514;23;20041;-77
2021/10/27 08:05:40;;;;;;;13.65;2.63;;;14.60;99.90;;;;;;6152277;23;20033;-77
2021/10/27 08:08:09;;;;;;;11.00;2.13;;;14.60;99.90;;;;;;6151608;23;20111;-76
2021/10/27 08:10:38;;;;;;;11.23;2.30;;;14.60;99.90;;;;;;6152879;23;20021;-78
2021/10/27 08:13:05;;;;;;;10.73;2.80;;;14.60;99.90;;;;;;6152280;23;20045;-76
2021/10/27 08:15:33;;;;;;;12.13;2.90;;;14.60;99.90;;;;;;6151973;23;20017;-77
2021/10/27 08:18:02;;;;;;;18.40;2.85;;;14.70;99.90;;;;;;6152232;23;20021;-77
2021/10/27 08:20:29;;;;;;;;;;;14.70;99.90;;;;;;6152302;23;20025;-77
2021/10/27 08:23:03;;;;;;;13.55;3.08;;;14.70;99.90;;;;;;6152604;23;19917;-77
2021/10/27 08:25:33;;;;;;;14.15;2.72;;;14.80;99.90;;;;;;6151827;23;20040;-77
2021/10/27 08:28:08;;;;;;;13.63;3.15;;;14.80;99.90;;;;;;6152739;23;20025;-77
2021/10/27 08:30:52;;;;;;;16.40;3.15;;;14.90;99.90;;;;;;6151349;23;20545;-77
2021/10/27 08:36:07;;;;;;;11.25;2.78;;;14.90;99.90;;;;;;6119534;23;20085;-77
2021/10/27 08:38:35;;;;;;;14.05;3.00;;;15.00;99.90;;;;;;6119490;23;20022;-78
2021/10/27 08:41:03;;;;;;;12.65;2.83;;;15.00;99.90;;;;;;6120028;23;20093;-78
2021/10/27 08:43:31;;;;;;;15.25;3.20;;;15.00;99.90;;;;;;6119564;23;20360;-78
2021/10/27 08:46:01;;;;;;;13.85;3.00;;;15.10;99.90;;;;;;6120123;23;20018;-77
2021/10/27 08:48:33;;;;;;;13.55;4.22;;;15.20;99.90;;;;;;6119673;23;20551;-78
2021/10/27 08:51:05;;;;;;;9.73;2.60;;;15.20;99.90;;;;;;6119999;23;20018;-77
2021/10/27 08:53:35;;;;;;;8.80;2.45;;;15.20;99.90;;;;;;6118906;23;20045;-77
2021/10/27 08:56:05;;;;;;;11.55;2.70;;;15.30;99.90;;;;;;6119614;23;20349;-78
2021/10/27 08:58:45;;;;;;;10.07;2.28;;;15.30;99.90;;;;;;6119344;23;20357;-77
2021/10/27 09:06:57;;;;;;;10.27;2.15;;;15.50;99.90;;;;;;6119522;23;20073;-77
2021/10/27 09:09:57;;;;;;;10.38;2.38;;;15.50;99.90;;;;;;6118942;23;20484;-77
2021/10/27 09:55:47;;;;;;;7.03;1.35;;;16.40;99.90;;;;;;6031808;23;20087;-78
2021/10/27 10:06:48;;;;;;;9.07;1.30;;;16.50;99.90;;;;;;6041109;23;20098;-78
2021/10/27 10:09:18;;;;;;;7.95;1.20;;;16.50;99.90;;;;;;6060703;23;20027;-78
2021/10/27 10:11:46;;;;;;;7.20;1.30;;;16.50;99.90;;;;;;6060913;23;20019;-77
2021/10/27 10:14:14;;;;;;;;;;;16.50;99.90;;;;;;6060589;23;20035;-78
2021/10/27 10:16:46;;;;;;;9.93;1.70;;;16.60;99.90;;;;;;6061089;23;20408;-78
2021/10/27 10:19:16;;;;;;;6.47;1.55;;;16.70;99.90;;;;;;6140249;23;20021;-78
2021/10/27 10:21:46;;;;;;;6.28;1.58;;;16.80;99.90;;;;;;6151002;23;20472;-77
2021/10/27 10:24:24;;;;;;;6.20;1.75;;;16.80;99.90;;;;;;6150691;23;20029;-78
2021/10/27 10:26:57;;;;;;;12.85;1.85;;;16.90;99.90;;;;;;6150566;23;20159;-77
2021/10/27 10:29:47;;;;;;;4.35;1.23;;;16.90;99.90;;;;;;6149243;23;20091;-77
2021/10/27 10:32:24;;;;;;;7.25;1.30;;;16.90;99.90;;;;;;6150382;23;20029;-78
2021/10/27 10:35:29;;;;;;;4.82;0.98;;;16.90;99.90;;;;;;6150786;23;20022;-78
2021/10/27 11:03:29;;;;;;;6.00;1.30;;;17.40;99.90;;;;;;6150894;23;20028;-78
2021/10/27 11:37:32;;;;;;;5.78;1.33;;;17.30;99.90;;;;;;6119066;23;20510;-77
2021/10/27 11:42:41;;;;;;;5.63;1.13;;;17.30;99.90;;;;;;6118312;23;20073;-78
2021/10/27 11:46:10;;;;;;;6.93;1.10;;;17.40;99.90;;;;;;6120307;23;20026;-77
2021/10/27 11:48:19;;;;;;;4.18;0.90;;;17.40;99.90;;;;;;6105222;23;20125;-77
2021/10/27 11:50:48;;;;;;;4.97;1.20;;;17.40;99.90;;;;;;6125145;23;20021;-77
2021/10/27 11:53:34;;;;;;;6.95;0.95;;;17.40;99.90;;;;;;6151877;23;20025;-78
2021/10/27 11:56:22;;;;;;;5.22;1.00;;;17.40;99.90;;;;;;6152877;23;20077;-78
2021/10/27 11:58:55;;;;;;;5.32;1.00;;;17.50;99.90;;;;;;6152125;23;20072;-77
2021/10/27 12:01:30;;;;;;;4.85;1.00;;;17.50;99.90;;;;;;6151207;23;20598;-78
2021/10/27 12:03:58;;;;;;;6.90;1.30;;;17.50;99.90;;;;;;6152400;23;20025;-78
2021/10/27 12:09:49;;;;;;;4.63;1.40;;;17.50;99.90;;;;;;6032291;23;20023;-78
2021/10/27 12:15:39;;;;;;;6.85;1.38;;;17.60;99.90;;;;;;6033172;23;20447;-78
2021/10/27 12:18:09;;;;;;;4.28;1.33;;;17.60;99.90;;;;;;6033300;23;20020;-77
2021/10/27 12:20:39;;;;;;;4.05;1.10;;;17.60;99.90;;;;;;6033418;23;20023;-78
2021/10/27 12:23:25;;;;;;;7.53;1.55;;;17.60;99.90;;;;;;6032547;23;20019;-77
2021/10/27 12:26:03;;;;;;;5.43;1.05;;;17.60;99.90;;;;;;6033548;23;20034;-77
2021/10/27 12:28:35;;;;;;;;;;;17.70;99.90;;;;;;6033734;23;20028;-77
2021/10/27 12:31:23;;;;;;;4.28;1.10;;;17.60;99.90;;;;;;6033883;23;20376;-78
2021/10/27 12:33:51;;;;;;;6.65;1.17;;;17.70;99.90;;;;;;6033193;23;20075;-78
2021/10/27 12:36:25;;;;;;;6.82;1.10;;;17.70;99.90;;;;;;6032797;23;20444;-78
2021/10/27 12:39:36;;;;;;;5.95;1.25;;;17.80;99.90;;;;;;6033863;23;20023;-77
2021/10/27 12:42:09;;;;;;;8.13;1.63;;;17.80;99.90;;;;;;6062196;23;20019;-76
2021/10/27 12:44:53;;;;;;;5.63;1.00;;;17.80;99.90;;;;;;6061577;23;20022;-76
2021/10/27 12:47:26;;;;;;;5.70;1.10;;;17.80;99.90;;;;;;6060772;23;20022;-78
2021/10/27 12:50:11;;;;;;;7.53;1.38;;;17.80;99.90;;;;;;6062144;23;20030;-78
2021/10/27 12:52:45;;;;;;;5.53;1.35;;;17.80;99.90;;;;;;6061670;23;20026;-78
2021/10/27 12:55:24;;;;;;;5.75;1.17;;;17.80;99.90;;;;;;6061576;23;20066;-78
2021/10/27 12:58:10;;;;;;;7.28;1.15;;;17.80;99.90;;;;;;6062301;23;20028;-78
2021/10/27 13:00:53;;;;;;;6.60;1.38;;;17.80;99.90;;;;;;6061953;23;20078;-77
2021/10/27 13:19:55;;;;;;;6.60;1.20;;;17.90;99.90;;;;;;6061846;23;20103;-77
2021/10/27 13:22:37;;;;;;;6.90;1.30;;;17.90;99.90;;;;;;6060904;23;20373;-78
2021/10/27 13:30:35;;;;;;;6.93;1.40;;;17.80;99.90;;;;;;6061738;23;20057;-77
2021/10/27 13:33:07;;;;;;;5.22;1.35;;;17.80;99.90;;;;;;6060861;23;20023;-77
2021/10/27 13:35:35;;;;;;;7.45;1.55;;;17.80;99.90;;;;;;6060093;23;20023;-78
2021/10/27 13:38:03;;;;;;;6.05;1.20;;;17.80;99.90;;;;;;6060233;23;20071;-78
2021/10/27 13:40:33;;;;;;;5.78;1.38;;;17.80;99.90;;;;;;6060925;23;20026;-79
2021/10/27 13:43:06;;;;;;;6.60;1.13;;;17.80;99.90;;;;;;6062049;23;20086;-78
2021/10/27 13:45:49;;;;;;;7.43;1.63;;;17.80;99.90;;;;;;6080460;23;20077;-78
2021/10/27 13:59:19;;;;;;;6.47;1.80;;;17.70;99.90;;;;;;6121398;23;20029;-76
2021/10/27 14:07:29;;;;;;;9.32;1.90;;;17.70;99.90;;;;;;6150233;23;20372;-78
2021/10/27 14:10:04;;;;;;;7.43;1.80;;;17.60;99.90;;;;;;6150931;23;20080;-77
2021/10/27 14:12:45;;;;;;;7.03;1.95;;;17.60;99.90;;;;;;6151224;23;20021;-78
2021/10/27 14:48:07;;;;;;;7.93;2.30;;;17.30;99.90;;;;;;6089640;23;20033;-78
2021/10/27 15:20:52;;;;;;;10.23;3.20;;;17.00;99.90;;;;;;6091081;23;20030;-78
2021/10/27 15:28:55;;;;;;;7.85;2.30;;;17.00;99.90;;;;;;6091262;23;20029;-78
2021/10/27 15:34:22;;;;;;;9.40;2.30;;;16.90;99.90;;;;;;6091916;23;20098;-78
2021/10/27 15:37:03;;;;;;;5.53;2.28;;;16.80;99.90;;;;;;6091200;23;20469;-78
2021/10/27 15:52:51;;;;;;;6.47;2.42;;;16.60;99.90;;;;;;6123624;23;20021;-77
2021/10/27 15:55:19;;;;;;;11.95;2.35;;;16.60;99.90;;;;;;6121105;23;20030;-78
2021/10/27 15:57:46;;;;;;;6.97;2.20;;;16.50;99.90;;;;;;6123663;23;20021;-79
2021/10/27 16:00:14;;;;;;;10.15;2.50;;;16.50;99.90;;;;;;6122117;23;20061;-78
2021/10/27 16:02:41;;;;;;;8.50;2.30;;;16.40;99.90;;;;;;6152542;23;20021;-78
2021/10/27 16:05:08;;;;;;;9.15;2.40;;;16.50;99.90;;;;;;6151795;23;20052;-78
2021/10/27 16:07:41;;;;;;;9.25;1.98;;;16.50;99.90;;;;;;6152552;23;20020;-77
2021/10/27 16:10:16;;;;;;;8.48;2.53;;;16.40;99.90;;;;;;6151819;23;20025;-76
2021/10/27 16:12:43;;;;;;;9.90;2.28;;;16.40;99.90;;;;;;6152475;23;20480;-78
2021/10/27 16:15:34;;;;;;;9.13;3.08;;;16.40;99.90;;;;;;6151473;23;20053;-77
2021/10/27 16:18:04;;;;;;;9.70;2.40;;;16.30;99.90;;;;;;6152728;23;20025;-78
2021/10/27 16:20:31;;;;;;;12.77;2.38;;;16.30;99.90;;;;;;6152399;23;20018;-78
2021/10/27 16:22:59;;;;;;;8.45;2.75;;;16.30;99.90;;;;;;6152316;23;20017;-78
2021/10/27 16:25:27;;;;;;;5.33;2.00;;;16.30;99.90;;;;;;6151329;23;20053;-77
2021/10/27 16:27:54;;;;;;;5.95;2.03;;;16.20;99.90;;;;;;6152199;23;20029;-78
2021/10/27 16:30:22;;;;;;;5.88;2.22;;;16.30;99.90;;;;;;6151248;23;20033;-78
2021/10/27 16:32:48;;;;;;;10.48;2.17;;;16.20;99.90;;;;;;6152853;23;20080;-78
2021/10/27 16:35:15;;;;;;;11.48;2.33;;;16.20;99.90;;;;;;6150886;23;20049;-77
2021/10/27 16:37:43;;;;;;;6.85;3.17;;;16.20;99.90;;;;;;6152176;23;20025;-78
2021/10/27 16:40:10;;;;;;;8.60;2.92;;;16.10;99.90;;;;;;6151895;23;20022;-78
2021/10/27 16:42:37;;;;;;;10.27;2.80;;;16.10;99.90;;;;;;6126728;23;20021;-78
2021/10/27 16:45:07;;;;;;;11.60;3.30;;;16.10;99.90;;;;;;6151747;23;20077;-79
2021/10/27 16:47:34;;;;;;;17.80;9.13;;;16.00;99.90;;;;;;6151737;23;20419;-78
2021/10/27 16:50:05;;;;;;;10.30;5.75;;;16.00;99.90;;;;;;6152177;23;20417;-77
2021/10/27 16:52:33;;;;;;;9.98;4.63;;;16.00;99.90;;;;;;6151837;23;20593;-78
2021/10/27 16:55:03;;;;;;;7.00;2.13;;;16.00;99.90;;;;;;6152395;23;20052;-78
2021/10/27 16:57:30;;;;;;;9.95;2.83;;;16.00;99.90;;;;;;6151517;23;20021;-77
2021/10/27 16:59:57;;;;;;;8.43;2.65;;;16.00;99.90;;;;;;6150604;23;20025;-78
2021/10/27 17:02:24;;;;;;;8.20;2.70;;;15.90;99.90;;;;;;6151576;23;20029;-78
2021/10/27 17:04:52;;;;;;;7.15;2.53;;;15.90;99.90;;;;;;6151632;23;20730;-78
2021/10/27 17:07:20;;;;;;;8.27;2.50;;;15.90;99.90;;;;;;6149649;23;20083;-76
2021/10/27 17:09:47;;;;;;;9.90;2.30;;;15.80;99.90;;;;;;6151826;23;20025;-78
2021/10/27 17:12:14;;;;;;;12.45;2.88;;;15.80;99.90;;;;;;6150744;23;20450;-78
2021/10/27 17:14:42;;;;;;;8.15;3.58;;;15.80;99.90;;;;;;6151346;23;20021;-77
2021/10/27 17:17:08;;;;;;;9.27;2.45;;;15.80;99.90;;;;;;6151535;23;20084;-78
2021/10/27 17:19:35;;;;;;;10.93;2.92;;;15.70;99.90;;;;;;6151657;23;20538;-78
2021/10/27 17:22:05;;;;;;;7.57;2.60;;;15.70;99.90;;;;;;6151943;23;20022;-78
2021/10/27 17:24:32;;;;;;;6.70;2.47;;;15.70;99.90;;;;;;6151937;23;20534;-77
2021/10/27 17:27:19;;;;;;;9.50;2.60;;;15.60;99.90;;;;;;6150719;23;20539;-78
2021/10/27 17:29:48;;;;;;;10.40;2.90;;;15.60;99.90;;;;;;6151798;23;20018;-77
2021/10/27 17:32:15;;;;;;;7.10;2.33;;;15.60;99.90;;;;;;6151195;23;20412;-77
2021/10/27 17:34:44;;;;;;;8.70;2.47;;;15.60;99.90;;;;;;6150049;23;20472;-77
2021/10/27 17:37:14;;;;;;;11.82;3.03;;;15.60;99.90;;;;;;6151234;23;20033;-77
2021/10/27 17:39:42;;;;;;;11.73;2.70;;;15.60;99.90;;;;;;6151697;23;20044;-77
2021/10/27 17:42:13;;;;;;;15.15;3.13;;;15.60;99.90;;;;;;6150288;23;20468;-78
2021/10/27 17:44:42;;;;;;;8.88;2.90;;;15.50;99.90;;;;;;6151585;23;20017;-77
2021/10/27 17:47:12;;;;;;;12.77;3.30;;;15.50;99.90;;;;;;6150895;23;20025;-77
2021/10/27 18:00:07;;;;;;;10.35;3.28;;;15.40;99.90;;;;;;6150695;23;20037;-76
2021/10/27 18:02:36;;;;;;;7.25;2.70;;;15.40;99.90;;;;;;6151552;23;20025;-77
2021/10/27 18:05:04;;;;;;;10.00;3.08;;;15.30;99.90;;;;;;6149904;23;20552;-78
2021/10/27 18:07:32;;;;;;;8.73;2.90;;;15.30;99.90;;;;;;6150861;23;20022;-77
2021/10/27 18:10:01;;;;;;;4.80;2.10;;;15.30;99.90;;;;;;6151586;23;20084;-77
2021/10/27 18:12:28;;;;;;;12.00;2.63;;;15.30;99.90;;;;;;6151107;23;20017;-78
2021/10/27 18:14:56;;;;;;;7.70;2.72;;;15.20;99.90;;;;;;6150965;23;20030;-78
2021/10/27 18:17:30;;;;;;;9.43;3.10;;;15.20;99.90;;;;;;6150574;23;20064;-78
2021/10/27 18:20:11;;;;;;;8.10;3.05;;;15.20;99.90;;;;;;6151132;23;20534;-78
2021/10/27 18:25:25;;;;;;;10.02;2.80;;;15.20;99.90;;;;;;6150495;23;20088;-78
2021/10/27 18:28:09;;;;;;;11.93;3.50;;;15.20;99.90;;;;;;6151937;23;20021;-78
2021/10/27 18:38:59;;;;;;;13.27;3.05;;;15.10;99.90;;;;;;6150921;23;20401;-78
2021/10/27 18:43:54;;;;;;;8.60;3.08;;;15.10;99.90;;;;;;6151229;23;20029;-78
2021/10/27 18:46:21;;;;;;;12.25;3.40;;;15.10;99.90;;;;;;6150794;23;20081;-78
2021/10/27 18:48:48;;;;;;;8.15;3.03;;;15.10;99.90;;;;;;6151819;23;20076;-79
2021/10/27 18:51:22;;;;;;;8.32;2.85;;;15.10;99.90;;;;;;6150176;23;20029;-78
2021/10/27 18:59:18;;;;;;;11.30;3.03;;;15.10;99.90;;;;;;6152977;23;20024;-78
2021/10/27 19:12:40;;;;;;;;;;;15.00;99.90;;;;;;6152921;23;20056;-78
2021/10/27 19:15:20;;;;;;;11.52;3.17;;;15.00;99.90;;;;;;6152828;23;19923;-79
2021/10/27 19:17:47;;;;;;;10.85;3.33;;;15.00;99.90;;;;;;6153045;23;20084;-78
2021/10/27 19:20:14;;;;;;;9.02;3.15;;;15.00;99.90;;;;;;6152668;23;20510;-78
2021/10/27 19:22:42;;;;;;;12.88;2.78;;;15.00;99.90;;;;;;6152906;23;20021;-78
2021/10/27 20:11:55;;;;;;;11.98;3.05;;;14.80;99.90;;;;;;6152604;23;20036;-78
2021/10/27 20:51:37;;;;;;;6.65;2.50;;;14.80;99.90;;;;;;6092515;23;20035;-77
2021/10/27 20:54:05;;;;;;;9.52;2.47;;;14.90;99.90;;;;;;6152286;23;20044;-78
2021/10/27 20:56:35;;;;;;;7.60;2.50;;;14.90;99.90;;;;;;6152040;23;20072;-77
2021/10/27 20:59:22;;;;;;;9.93;2.80;;;14.90;99.90;;;;;;6152586;23;20025;-78
2021/10/27 21:12:59;;;;;;;6.40;2.70;;;14.90;99.90;;;;;;6062277;23;20023;-78
2021/10/27 21:15:26;;;;;;;9.82;2.60;;;14.90;99.90;;;;;;6060993;23;20023;-78
2021/10/27 21:17:54;;;;;;;6.07;2.40;;;14.90;99.90;;;;;;6061322;23;20093;-78
2021/10/27 21:20:21;;;;;;;9.57;2.75;;;15.00;99.90;;;;;;6060514;23;20026;-77
2021/10/27 21:22:49;;;;;;;12.75;2.65;;;14.90;99.90;;;;;;6061575;23;20026;-78
2021/10/27 21:25:21;;;;;;;10.63;2.67;;;15.00;99.90;;;;;;6061295;23;20094;-78
2021/10/27 21:28:03;;;;;;;10.05;2.63;;;15.00;99.90;;;;;;6061853;23;20026;-77
2021/10/27 21:43:56;;;;;;;11.95;2.80;;;15.00;99.90;;;;;;6151825;23;20065;-78
2021/10/27 21:46:23;;;;;;;8.55;2.60;;;15.00;99.90;;;;;;6151217;23;20416;-77
2021/10/27 21:48:50;;;;;;;10.63;2.58;;;15.00;99.90;;;;;;6151377;23;20021;-77
2021/10/27 21:51:18;;;;;;;12.57;2.70;;;15.00;99.90;;;;;;6150942;23;20088;-78
2021/10/27 21:53:45;;;;;;;8.35;2.53;;;15.00;99.90;;;;;;6151835;23;20539;-78
2021/10/27 21:56:21;;;;;;;11.30;2.53;;;15.00;99.90;;;;;;6150991;23;20018;-77
2021/10/27 21:58:50;;;;;;;12.90;3.15;;;15.10;99.90;;;;;;6151653;23;20022;-77
2021/10/27 22:01:18;;;;;;;10.85;3.15;;;15.00;99.90;;;;;;6150142;23;20472;-77
2021/10/27 22:03:46;;;;;;;8.55;3.20;;;15.10;99.90;;;;;;6151566;23;20017;-78
2021/10/27 22:06:14;;;;;;;14.50;3.10;;;15.00;99.90;;;;;;6151060;23;20079;-77
2021/10/27 22:08:41;;;;;;;12.88;2.72;;;15.00;99.90;;;;;;6152076;23;20022;-78
2021/10/27 22:11:09;;;;;;;10.95;3.08;;;15.10;99.90;;;;;;6150693;23;20538;-77
2021/10/27 22:13:36;;;;;;;10.57;3.10;;;15.10;99.90;;;;;;6151426;23;20025;-78
2021/10/27 22:16:04;;;;;;;11.13;2.85;;;15.10;99.90;;;;;;6150870;23;20036;-77
2021/10/27 22:18:30;;;;;;;9.32;2.83;;;15.10;99.90;;;;;;6151396;23;20062;-77
2021/10/27 22:20:58;;;;;;;6.68;2.78;;;15.10;99.90;;;;;;6150922;23;20400;-77
2021/10/27 22:23:28;;;;;;;8.50;2.95;;;15.10;99.90;;;;;;6150379;23;20025;-78
2021/10/27 22:25:55;;;;;;;10.40;2.85;;;15.10;99.90;;;;;;6151142;23;20126;-78
2021/10/27 22:28:22;;;;;;;12.85;4.00;;;15.10;99.90;;;;;;6150498;23;20426;-77
2021/10/27 22:30:49;;;;;;;11.10;3.05;;;15.10;99.90;;;;;;6151190;23;20091;-78
2021/10/27 22:33:17;;;;;;;13.60;3.33;;;15.10;99.90;;;;;;6149876;23;20108;-78
2021/10/27 22:35:46;;;;;;;14.38;3.88;;;15.10;99.90;;;;;;6151696;23;20080;-77
2021/10/27 22:38:14;;;;;;;12.02;3.15;;;15.10;99.90;;;;;;6150491;23;20022;-78
2021/10/27 22:40:43;;;;;;;11.27;3.22;;;15.10;99.90;;;;;;6150991;23;20225;-77
2021/10/27 22:43:11;;;;;;;11.75;3.15;;;15.10;99.90;;;;;;6150950;23;20072;-77
2021/10/27 22:45:40;;;;;;;8.35;3.08;;;15.10;99.90;;;;;;6150984;23;20021;-77
2021/10/27 22:48:11;;;;;;;8.50;3.42;;;15.10;99.90;;;;;;6150629;23;20036;-77
2021/10/27 22:50:39;;;;;;;10.20;3.40;;;15.10;99.90;;;;;;6151172;23;20021;-77
2021/10/27 22:53:06;;;;;;;9.50;3.13;;;15.10;99.90;;;;;;6151348;23;20029;-76
2021/10/27 22:55:33;;;;;;;12.48;3.72;;;15.20;99.90;;;;;;6151144;23;20026;-77
2021/10/27 22:58:04;;;;;;;12.57;3.53;;;15.20;99.90;;;;;;6151007;23;20053;-78
